Weather at Torun Airport (Aeroklub Pomorski)

Public forecast

Using degrees Celsius for public forecast. Weather courtesy of forecast.io.

Closest aviation weather report (METAR) to Torun Airport (Aeroklub Pomorski)

Closest report is Bydgoszcz Ignacy Jan Paderewski Airport, 20.9 nm (38.7 km) WNW.

2022/11/29 10:30 (retrieved 37 minutes ago)

EPBY 291030Z 12009KT 090V150 9000 OVC008 01/M01 Q1023

Closest aviation forecast (TAF) to Torun Airport (Aeroklub Pomorski)

Closest forecast is Bydgoszcz Ignacy Jan Paderewski Airport, 20.9 nm (38.7 km) WNW.

2022/11/29 06:00 (retrieved 5 hours ago)

TAF EPBY 290530Z 2906/3006 11008KT 8000 BKN010 PROB40 2906/2909 4000 -RASN BKN004 BECMG 2910/2913 BKN030